Terminal Aerodrome Forecast
Issued by NWS North Platte, NE

Home | Current Version | Previous Version | Text Only | Print | Product List | Glossary Off
Versions: 1 2 3 4 5 6 7 8 9 10 11 12 13 14 15 16 17 18 19

241
FTUS43 KLBF 210520
TAFVTN
TAF
KVTN 210520Z 2106/2206 22008KT P6SM FEW250
     FM210900 23008KT P6SM FEW250 WS015/27045KT
     FM211500 25013KT P6SM FEW250
     FM211700 26017G28KT P6SM FEW250
     FM220000 26010KT P6SM FEW250
     FM220300 23006KT P6SM SCT200=

USA.gov is the U.S. government's official web portal to all federal, state and local government web resources and services.